Time;durP1;ratioP1;P1;durP2;ratioP2;P2;SDS_P1;SDS_P2;PMS_P1;PMS_P2;Temp;Humidity;BMP_temperature;BMP_pressure;BME280_temperature;BME280_humidity;BME280_pressure;Samples;Min_cycle;Max_cycle;Signal;HPM_P1;HPM_P2
2023/06/24 00:01:14;;;;;;;6.90;4.80;;;16.60;9.20;;;;;;5011909;28;20306;-68
2023/06/24 00:03:40;;;;;;;7.63;5.10;;;16.60;9.30;;;;;;5013981;28;20514;-67
2023/06/24 00:06:07;;;;;;;4.97;4.23;;;16.60;9.20;;;;;;5013931;28;20996;-67
2023/06/24 00:08:34;;;;;;;7.07;4.27;;;16.60;9.60;;;;;;5014105;28;20172;-67
2023/06/24 00:11:02;;;;;;;5.50;4.77;;;16.50;9.10;;;;;;5014123;28;20415;-67
2023/06/24 00:13:28;;;;;;;5.00;4.53;;;16.50;9.20;;;;;;5012418;28;20419;-67
2023/06/24 00:15:54;;;;;;;5.47;3.97;;;16.50;9.20;;;;;;5014061;28;20439;-66
2023/06/24 00:18:20;;;;;;;6.13;5.53;;;16.50;9.70;;;;;;5013775;28;20450;-67
2023/06/24 00:20:45;;;;;;;5.43;4.63;;;16.50;9.70;;;;;;5013950;28;20184;-67
2023/06/24 00:23:16;;;;;;;6.30;4.63;;;16.40;9.90;;;;;;5013545;28;20196;-67
2023/06/24 00:25:42;;;;;;;5.00;3.50;;;16.40;10.00;;;;;;5014374;28;20199;-68
2023/06/24 00:28:08;;;;;;;4.10;3.40;;;16.30;10.40;;;;;;5012887;28;20438;-67
2023/06/24 00:30:33;;;;;;;4.90;4.03;;;16.30;9.90;;;;;;5012654;28;20762;-67
2023/06/24 00:32:59;;;;;;;6.07;4.23;;;16.30;9.50;;;;;;5013485;28;20704;-67
2023/06/24 00:35:24;;;;;;;6.40;4.23;;;16.40;10.00;;;;;;5012783;28;20262;-67
2023/06/24 00:37:50;;;;;;;5.40;3.77;;;16.30;9.50;;;;;;5012431;28;20259;-67
2023/06/24 00:40:16;;;;;;;4.90;3.33;;;16.30;9.60;;;;;;5013807;28;20203;-67
2023/06/24 00:42:45;;;;;;;5.53;4.27;;;16.30;9.50;;;;;;5013615;28;20195;-67
2023/06/24 00:45:11;;;;;;;5.10;4.37;;;16.30;9.50;;;;;;5013691;28;20557;-67
2023/06/24 00:47:37;;;;;;;5.13;4.07;;;16.30;9.50;;;;;;5012348;28;20577;-67
2023/06/24 00:50:03;;;;;;;6.10;4.50;;;16.30;9.50;;;;;;5014675;28;20188;-67
2023/06/24 00:52:28;;;;;;;6.20;4.30;;;16.30;9.70;;;;;;5014056;28;20403;-67
2023/06/24 00:54:55;;;;;;;5.07;4.27;;;16.20;10.30;;;;;;5013165;28;20531;-67
2023/06/24 00:57:25;;;;;;;6.97;3.70;;;16.20;10.60;;;;;;5012712;28;20701;-67
2023/06/24 00:59:54;;;;;;;5.90;4.83;;;16.10;10.70;;;;;;5013992;28;20478;-68
2023/06/24 01:02:22;;;;;;;7.03;4.47;;;16.10;11.10;;;;;;5013224;28;20470;-68
2023/06/24 01:04:48;;;;;;;6.80;5.10;;;16.00;11.50;;;;;;5013681;28;20470;-68
2023/06/24 01:07:15;;;;;;;6.00;4.20;;;16.00;11.70;;;;;;5013761;28;20434;-67
2023/06/24 01:09:41;;;;;;;5.77;4.90;;;15.90;11.90;;;;;;5012470;28;20429;-68
2023/06/24 01:12:07;;;;;;;5.73;4.00;;;15.90;12.60;;;;;;5012797;28;20759;-68
2023/06/24 01:14:35;;;;;;;7.20;4.93;;;15.80;12.70;;;;;;5013159;28;20415;-68
2023/06/24 01:17:19;;;;;;;5.60;3.83;;;15.80;12.40;;;;;;5013212;28;20492;-68
2023/06/24 01:20:00;;;;;;;4.73;3.90;;;15.80;12.10;;;;;;5013364;28;20406;-68
2023/06/24 01:23:06;;;;;;;5.60;4.17;;;15.70;13.20;;;;;;5011328;28;20430;-68
2023/06/24 01:26:14;;;;;;;4.57;3.93;;;15.70;13.60;;;;;;5013004;28;20497;-68
2023/06/24 01:28:59;;;;;;;6.70;4.07;;;15.60;13.50;;;;;;5011540;28;20462;-68
2023/06/24 01:32:03;;;;;;;7.57;5.13;;;15.60;14.60;;;;;;5011329;28;20419;-68
2023/06/24 01:34:36;;;;;;;5.77;4.53;;;15.50;14.20;;;;;;5012633;28;20413;-68
2023/06/24 01:37:17;;;;;;;4.70;4.27;;;15.50;14.00;;;;;;5012659;28;20445;-68
2023/06/24 01:39:57;;;;;;;5.23;4.10;;;15.50;14.10;;;;;;5012569;28;20434;-68
2023/06/24 01:42:22;;;;;;;6.00;5.20;;;15.50;13.90;;;;;;5011212;28;20648;-68
2023/06/24 01:44:50;;;;;;;7.23;5.03;;;15.50;14.50;;;;;;5012580;28;20460;-68
2023/06/24 01:47:22;;;;;;;7.03;5.00;;;15.50;14.30;;;;;;5012565;28;20211;-68
2023/06/24 01:49:50;;;;;;;5.90;4.47;;;15.50;14.30;;;;;;5012612;28;20784;-68
2023/06/24 01:52:17;;;;;;;5.77;4.23;;;15.50;14.50;;;;;;5012199;28;20418;-68
2023/06/24 01:54:46;;;;;;;6.40;5.37;;;15.50;14.30;;;;;;5012654;28;20429;-68
2023/06/24 01:57:12;;;;;;;7.00;5.50;;;15.50;14.20;;;;;;5018167;23;21004;-72
2023/06/24 01:59:42;;;;;;;4.73;3.70;;;15.40;14.20;;;;;;4993039;28;20440;-69
2023/06/24 02:02:08;;;;;;;5.40;4.87;;;15.40;14.60;;;;;;4992453;28;20408;-72
2023/06/24 02:04:35;;;;;;;5.87;5.27;;;15.40;15.10;;;;;;4992473;28;20408;-71
2023/06/24 02:07:03;;;;;;;7.30;5.37;;;15.30;15.40;;;;;;4992475;28;20439;-71
2023/06/24 02:09:30;;;;;;;5.97;4.47;;;15.30;15.70;;;;;;4992520;28;20418;-69
2023/06/24 02:11:58;;;;;;;6.40;4.47;;;15.30;15.30;;;;;;4992325;28;20415;-72
2023/06/24 02:14:26;;;;;;;6.27;4.73;;;15.30;15.20;;;;;;4992497;28;20916;-72
2023/06/24 02:16:57;;;;;;;4.40;3.60;;;15.30;15.50;;;;;;4992288;28;20432;-71
2023/06/24 02:19:29;;;;;;;6.60;4.70;;;15.20;15.70;;;;;;4992446;28;20399;-71
2023/06/24 02:21:56;;;;;;;5.77;4.37;;;15.20;15.80;;;;;;4992146;28;20446;-71
2023/06/24 02:24:22;;;;;;;6.00;4.90;;;15.20;15.80;;;;;;4993108;28;20858;-71
2023/06/24 02:26:49;;;;;;;6.67;3.93;;;15.20;16.00;;;;;;4996391;28;20480;-69
2023/06/24 02:29:15;;;;;;;7.27;5.00;;;15.20;16.50;;;;;;4996411;28;20481;-71
2023/06/24 02:31:41;;;;;;;5.57;4.30;;;15.10;17.10;;;;;;4996321;28;20912;-71
2023/06/24 02:34:06;;;;;;;8.50;4.13;;;15.10;17.20;;;;;;4996412;28;20470;-71
2023/06/24 02:36:32;;;;;;;5.13;4.50;;;15.00;17.50;;;;;;4996248;28;20708;-71
2023/06/24 02:38:57;;;;;;;7.07;4.80;;;15.00;18.70;;;;;;4996308;28;20430;-70
2023/06/24 02:41:23;;;;;;;9.17;5.30;;;15.00;18.70;;;;;;4996107;28;20263;-72
2023/06/24 02:43:49;;;;;;;6.70;4.80;;;14.90;19.70;;;;;;4996122;28;20218;-71
2023/06/24 02:46:16;;;;;;;5.50;4.40;;;14.90;20.50;;;;;;4996379;28;20223;-71
2023/06/24 02:48:45;;;;;;;6.10;4.97;;;14.80;21.60;;;;;;4996083;28;20184;-72
2023/06/24 02:51:11;;;;;;;7.43;5.70;;;14.80;22.50;;;;;;4995997;28;20419;-71
2023/06/24 02:53:38;;;;;;;7.73;5.33;;;14.70;22.50;;;;;;4996016;28;21049;-71
2023/06/24 02:56:05;;;;;;;5.80;4.67;;;14.70;22.80;;;;;;4995845;28;20430;-71
2023/06/24 02:58:32;;;;;;;10.03;6.57;;;14.60;23.60;;;;;;4995889;28;20434;-71
2023/06/24 03:00:59;;;;;;;8.73;5.00;;;14.60;23.90;;;;;;4996152;28;20859;-71
2023/06/24 03:03:27;;;;;;;7.23;5.40;;;14.50;23.80;;;;;;4995794;28;20502;-71
2023/06/24 03:05:56;;;;;;;8.97;4.40;;;14.40;24.20;;;;;;4994704;28;20476;-71
2023/06/24 03:08:24;;;;;;;7.80;4.67;;;14.40;23.60;;;;;;4995697;28;20431;-71
2023/06/24 03:10:50;;;;;;;9.87;5.20;;;14.40;23.20;;;;;;4995688;28;20464;-72
2023/06/24 03:13:15;;;;;;;5.43;4.77;;;14.40;22.70;;;;;;4995596;28;20429;-71
2023/06/24 03:15:41;;;;;;;7.43;4.63;;;14.30;23.30;;;;;;4995493;28;20422;-71
2023/06/24 03:18:07;;;;;;;6.57;5.90;;;14.30;23.20;;;;;;4995575;28;20657;-72
2023/06/24 03:20:38;;;;;;;6.40;5.40;;;14.30;22.90;;;;;;4994181;28;20185;-70
2023/06/24 03:23:06;;;;;;;5.20;4.10;;;14.30;23.00;;;;;;4995733;28;20159;-72
2023/06/24 03:25:31;;;;;;;6.33;5.00;;;14.30;22.50;;;;;;4995344;28;20464;-71
2023/06/24 03:27:57;;;;;;;5.53;4.60;;;14.30;23.10;;;;;;4995192;28;20438;-71
2023/06/24 03:30:22;;;;;;;5.23;4.37;;;14.30;24.10;;;;;;4995274;28;20258;-71
2023/06/24 03:32:48;;;;;;;8.47;6.03;;;14.30;24.80;;;;;;4995286;28;20179;-71
2023/06/24 03:35:14;;;;;;;10.00;4.97;;;14.30;25.00;;;;;;4995189;28;20207;-71
2023/06/24 03:37:39;;;;;;;8.87;6.10;;;14.40;25.30;;;;;;4995166;28;20234;-71
2023/06/24 03:40:06;;;;;;;12.93;6.50;;;14.40;25.60;;;;;;4995105;28;20184;-71
2023/06/24 03:42:31;;;;;;;6.30;5.50;;;14.40;26.10;;;;;;4994348;28;20200;-71
2023/06/24 03:44:57;;;;;;;7.27;6.33;;;14.40;27.00;;;;;;4994842;28;20583;-72
2023/06/24 03:47:22;;;;;;;10.57;7.50;;;14.30;27.50;;;;;;4995141;28;20617;-73
2023/06/24 03:49:48;;;;;;;6.60;5.70;;;14.40;27.80;;;;;;4995093;28;20259;-71
2023/06/24 03:52:13;;;;;;;8.60;6.57;;;14.50;27.20;;;;;;4994949;28;20211;-71
2023/06/24 03:54:40;;;;;;;7.77;5.73;;;14.50;27.00;;;;;;4994932;28;20183;-72
2023/06/24 03:57:06;;;;;;;6.53;5.03;;;14.50;26.40;;;;;;4994731;28;20216;-71
2023/06/24 03:59:32;;;;;;;9.17;6.73;;;14.50;26.20;;;;;;4994800;28;20514;-71
2023/06/24 04:01:57;;;;;;;6.13;5.57;;;14.60;26.00;;;;;;4994753;28;20454;-72
2023/06/24 04:04:23;;;;;;;7.10;6.40;;;14.60;25.80;;;;;;4994715;28;20606;-72
2023/06/24 04:06:48;;;;;;;8.17;7.30;;;14.70;25.90;;;;;;4994707;28;20201;-72
2023/06/24 04:09:14;;;;;;;11.03;7.30;;;14.80;25.90;;;;;;4994857;28;20262;-72
2023/06/24 04:11:39;;;;;;;7.37;5.80;;;14.80;25.50;;;;;;4993364;28;20682;-71
2023/06/24 04:14:06;;;;;;;7.97;6.97;;;14.80;25.30;;;;;;4994721;28;20192;-72
2023/06/24 04:16:32;;;;;;;12.77;7.87;;;14.90;24.90;;;;;;4994665;28;20190;-71
2023/06/24 04:18:58;;;;;;;8.57;7.33;;;14.90;25.20;;;;;;4994576;28;20765;-71
2023/06/24 04:21:23;;;;;;;6.83;6.13;;;15.00;25.20;;;;;;4994407;28;20420;-72
2023/06/24 04:23:49;;;;;;;7.60;6.60;;;15.10;24.70;;;;;;4994399;28;20183;-72
2023/06/24 04:26:14;;;;;;;8.30;6.60;;;15.10;24.50;;;;;;4994263;28;20211;-71
2023/06/24 04:28:40;;;;;;;9.10;7.60;;;15.20;24.20;;;;;;4994287;28;20257;-71
2023/06/24 04:31:05;;;;;;;10.70;8.10;;;15.30;23.80;;;;;;4994373;28;20182;-71
2023/06/24 04:33:31;;;;;;;8.50;7.60;;;15.40;23.20;;;;;;4994211;28;20507;-71
2023/06/24 04:35:57;;;;;;;9.83;8.80;;;15.40;22.90;;;;;;4994256;28;20208;-70
2023/06/24 04:38:23;;;;;;;9.10;6.90;;;15.50;22.20;;;;;;4994115;28;20207;-71
2023/06/24 04:40:48;;;;;;;7.23;6.50;;;15.70;22.30;;;;;;4994134;28;20219;-71
2023/06/24 04:43:14;;;;;;;7.67;6.87;;;15.70;22.30;;;;;;4994120;28;20464;-72
2023/06/24 04:45:40;;;;;;;9.50;6.67;;;15.80;21.00;;;;;;4995824;28;20300;-72
2023/06/24 04:48:06;;;;;;;8.37;7.20;;;15.90;21.00;;;;;;4995003;28;20882;-71
2023/06/24 04:50:31;;;;;;;7.93;6.10;;;16.00;20.70;;;;;;4992945;28;20769;-70
2023/06/24 04:52:57;;;;;;;7.17;6.47;;;16.00;19.80;;;;;;4993956;28;20554;-70
2023/06/24 04:55:23;;;;;;;16.50;7.07;;;16.10;19.70;;;;;;4993777;28;20191;-72
2023/06/24 04:57:48;;;;;;;6.10;5.20;;;16.10;19.60;;;;;;4993333;28;20215;-73
2023/06/24 05:00:14;;;;;;;7.27;6.57;;;16.10;20.20;;;;;;4993639;28;20805;-70
2023/06/24 05:02:40;;;;;;;8.03;6.43;;;16.20;19.60;;;;;;4993295;28;20181;-69
2023/06/24 05:05:06;;;;;;;8.80;7.73;;;16.30;19.20;;;;;;4993398;28;20836;-69
2023/06/24 05:07:32;;;;;;;6.80;6.10;;;16.30;19.20;;;;;;4992179;28;20200;-69
2023/06/24 05:09:57;;;;;;;8.37;6.87;;;16.40;19.20;;;;;;4993768;28;20968;-69
2023/06/24 05:12:23;;;;;;;7.40;6.70;;;16.50;19.50;;;;;;4991766;28;20172;-70
2023/06/24 05:14:52;;;;;;;7.90;6.93;;;16.60;19.80;;;;;;4993378;28;20283;-69
2023/06/24 05:17:19;;;;;;;8.57;7.43;;;17.10;27.60;;;;;;4991822;28;20251;-71
2023/06/24 05:19:44;;;;;;;8.27;6.63;;;16.70;25.40;;;;;;4993112;28;20952;-70
2023/06/24 05:22:10;;;;;;;9.80;7.17;;;16.90;21.30;;;;;;4992678;28;20448;-70
2023/06/24 05:24:35;;;;;;;7.23;6.30;;;17.00;19.50;;;;;;4992899;28;20204;-70
2023/06/24 05:27:05;;;;;;;7.30;6.33;;;17.10;21.80;;;;;;4992821;28;20223;-74
2023/06/24 05:29:31;;;;;;;11.27;7.70;;;17.30;15.40;;;;;;4992964;28;20177;-76
2023/06/24 05:31:56;;;;;;;7.50;5.90;;;17.30;14.50;;;;;;4993000;28;20423;-72
2023/06/24 05:34:22;;;;;;;10.73;7.47;;;17.50;13.90;;;;;;4992882;28;20420;-72
2023/06/24 05:36:47;;;;;;;6.80;5.93;;;17.70;13.70;;;;;;4992895;28;20203;-73
2023/06/24 05:39:13;;;;;;;7.57;6.70;;;17.90;12.80;;;;;;4992743;28;20235;-72
2023/06/24 05:41:39;;;;;;;10.63;6.30;;;18.10;13.00;;;;;;4992739;28;20180;-73
2023/06/24 05:44:08;;;;;;;7.13;6.43;;;18.90;10.80;;;;;;4992717;28;20259;-72
2023/06/24 05:46:34;;;;;;;8.50;6.27;;;20.70;6.40;;;;;;4992529;28;20459;-73
2023/06/24 05:49:00;;;;;;;8.60;6.67;;;23.50;1.00;;;;;;4992565;28;20419;-73
2023/06/24 05:51:25;;;;;;;8.10;6.57;;;25.60;1.00;;;;;;4992540;28;20204;-73
2023/06/24 05:53:51;;;;;;;6.60;6.00;;;27.60;1.00;;;;;;4992508;28;20172;-74
2023/06/24 05:56:17;;;;;;;7.50;6.80;;;29.60;1.00;;;;;;4992412;28;20184;-73
2023/06/24 05:58:43;;;;;;;6.30;5.80;;;31.30;1.00;;;;;;4991939;28;20319;-73
2023/06/24 06:01:10;;;;;;;8.37;7.57;;;32.10;1.00;;;;;;4992385;28;20451;-73
2023/06/24 06:03:35;;;;;;;7.50;6.97;;;33.00;1.00;;;;;;4992357;28;20195;-74
2023/06/24 06:06:01;;;;;;;7.73;7.03;;;33.00;1.00;;;;;;4992473;28;20471;-74
2023/06/24 06:08:27;;;;;;;11.07;10.07;;;33.60;1.00;;;;;;4992177;28;20200;-73
2023/06/24 06:10:52;;;;;;;6.97;6.53;;;34.70;1.00;;;;;;4992443;28;20539;-73
2023/06/24 06:13:18;;;;;;;8.70;6.43;;;34.80;1.00;;;;;;4992249;28;20264;-73
2023/06/24 06:15:44;;;;;;;7.33;6.73;;;35.20;1.00;;;;;;4992482;28;20183;-73
2023/06/24 06:18:09;;;;;;;7.33;6.63;;;34.90;1.00;;;;;;4992235;28;20444;-73
2023/06/24 06:20:35;;;;;;;7.20;6.60;;;35.90;1.00;;;;;;4992329;28;20168;-74
2023/06/24 06:23:01;;;;;;;7.47;6.97;;;35.40;1.00;;;;;;4990682;28;20527;-73
2023/06/24 06:25:26;;;;;;;6.70;6.10;;;35.80;1.00;;;;;;4992323;28;20254;-74
2023/06/24 06:27:52;;;;;;;7.13;6.60;;;35.90;1.00;;;;;;4992322;28;20197;-74
2023/06/24 06:30:18;;;;;;;7.20;6.63;;;37.20;1.00;;;;;;4992369;28;20215;-72
2023/06/24 06:32:43;;;;;;;6.87;6.27;;;37.80;1.00;;;;;;4991980;28;20224;-72
2023/06/24 06:35:09;;;;;;;7.20;6.70;;;37.40;1.00;;;;;;4992311;28;20203;-71
2023/06/24 06:37:34;;;;;;;6.73;6.17;;;37.50;1.00;;;;;;4992342;28;20287;-71
2023/06/24 06:40:00;;;;;;;7.07;6.57;;;37.30;1.00;;;;;;4992191;28;20183;-71
2023/06/24 06:42:25;;;;;;;7.23;6.60;;;36.90;1.00;;;;;;4990899;28;20233;-74
2023/06/24 06:44:51;;;;;;;6.53;6.03;;;37.90;1.00;;;;;;4991103;28;20242;-72
2023/06/24 06:47:17;;;;;;;6.50;6.00;;;38.90;1.00;;;;;;4992087;28;20192;-69
2023/06/24 06:49:42;;;;;;;6.60;6.00;;;39.40;1.00;;;;;;4992254;28;20191;-72
2023/06/24 06:52:08;;;;;;;5.53;5.10;;;37.80;1.00;;;;;;4992693;28;20179;-70
2023/06/24 06:54:33;;;;;;;7.17;6.23;;;38.30;1.00;;;;;;4990662;28;20192;-71
2023/06/24 06:57:03;;;;;;;6.70;6.20;;;37.60;1.00;;;;;;4991740;28;20209;-69
2023/06/24 06:59:32;;;;;;;6.77;6.27;;;38.10;1.00;;;;;;4992052;28;20650;-70
2023/06/24 07:01:58;;;;;;;8.13;7.40;;;38.40;1.00;;;;;;4991837;28;20412;-70
2023/06/24 07:04:24;;;;;;;8.00;6.80;;;38.10;1.00;;;;;;4992171;28;20767;-70
2023/06/24 07:06:50;;;;;;;7.10;6.60;;;37.80;1.00;;;;;;4991954;28;20472;-69
2023/06/24 07:09:16;;;;;;;6.70;6.20;;;38.10;1.00;;;;;;4992203;28;20427;-74
2023/06/24 07:11:42;;;;;;;6.33;5.83;;;38.70;1.00;;;;;;4994643;28;20412;-75
2023/06/24 07:14:08;;;;;;;6.47;6.00;;;39.70;1.00;;;;;;4996100;28;20173;-70
2023/06/24 07:16:33;;;;;;;5.93;5.43;;;40.00;1.00;;;;;;4995793;28;20442;-71
2023/06/24 07:18:59;;;;;;;6.60;6.17;;;40.90;1.00;;;;;;4995722;28;20176;-71
2023/06/24 07:21:25;;;;;;;7.40;6.70;;;40.70;1.00;;;;;;4992705;28;20665;-70
2023/06/24 07:23:50;;;;;;;6.57;6.07;;;40.00;1.00;;;;;;4985471;28;20335;-70
2023/06/24 07:26:16;;;;;;;7.33;6.73;;;38.00;1.00;;;;;;4994192;28;20778;-70
2023/06/24 07:28:42;;;;;;;5.83;5.43;;;37.90;1.00;;;;;;4991719;28;20187;-73
2023/06/24 07:31:07;;;;;;;6.60;6.10;;;38.80;1.00;;;;;;4994589;28;20177;-71
2023/06/24 07:33:33;;;;;;;5.53;5.10;;;39.50;1.00;;;;;;4993348;28;20491;-70
2023/06/24 07:35:59;;;;;;;5.97;5.50;;;39.90;1.00;;;;;;4994809;28;20263;-70
2023/06/24 07:38:24;;;;;;;5.37;5.00;;;40.40;1.00;;;;;;4994717;28;20534;-73
2023/06/24 07:40:52;;;;;;;5.60;5.20;;;41.10;1.00;;;;;;4990292;28;20558;-73
2023/06/24 07:43:18;;;;;;;6.47;5.87;;;40.00;1.00;;;;;;4981175;28;20184;-71
2023/06/24 07:45:43;;;;;;;5.63;5.27;;;39.50;1.00;;;;;;4994982;28;20454;-71
2023/06/24 07:48:09;;;;;;;6.10;5.50;;;39.00;1.00;;;;;;4994887;28;20196;-72
2023/06/24 07:50:35;;;;;;;5.80;5.40;;;40.50;1.00;;;;;;4994868;28;20457;-71
2023/06/24 07:53:02;;;;;;;14.33;7.60;;;39.30;1.00;;;;;;4994781;28;20854;-71
2023/06/24 07:55:27;;;;;;;6.40;5.60;;;40.80;1.00;;;;;;4995112;28;20419;-71
2023/06/24 07:57:53;;;;;;;6.00;5.50;;;42.00;1.00;;;;;;5026804;22;20498;-71
2023/06/24 08:00:19;;;;;;;5.50;5.10;;;41.00;1.00;;;;;;5013674;28;20187;-70
2023/06/24 08:02:44;;;;;;;6.13;5.73;;;40.00;1.00;;;;;;5013341;28;20290;-70
2023/06/24 08:05:10;;;;;;;5.67;5.27;;;41.30;1.00;;;;;;5012882;28;20204;-70
2023/06/24 08:07:37;;;;;;;5.90;5.50;;;40.70;1.00;;;;;;5013933;28;20204;-71
2023/06/24 08:10:02;;;;;;;5.40;5.00;;;40.10;1.00;;;;;;5013882;28;20183;-70
2023/06/24 08:12:28;;;;;;;5.30;4.90;;;39.80;1.00;;;;;;5013728;28;20419;-70
2023/06/24 08:14:54;;;;;;;5.83;5.43;;;40.10;1.00;;;;;;5010689;28;20427;-70
2023/06/24 08:17:19;;;;;;;5.53;5.13;;;40.10;1.00;;;;;;5006499;28;20212;-70
2023/06/24 08:19:45;;;;;;;5.57;5.07;;;40.80;1.00;;;;;;5013566;28;20184;-71
2023/06/24 08:22:10;;;;;;;6.00;5.50;;;40.30;1.00;;;;;;5012495;28;20696;-71
2023/06/24 08:24:36;;;;;;;5.90;5.30;;;41.00;1.00;;;;;;5013905;28;20196;-71
2023/06/24 08:27:02;;;;;;;5.73;5.33;;;41.30;1.00;;;;;;5013126;28;20199;-71
2023/06/24 08:29:28;;;;;;;5.90;5.50;;;41.30;1.00;;;;;;5013402;28;20480;-71
2023/06/24 08:31:53;;;;;;;5.53;5.13;;;40.50;1.00;;;;;;5013098;28;20204;-70
2023/06/24 08:34:19;;;;;;;5.73;5.33;;;40.90;1.00;;;;;;5013268;28;20187;-70
2023/06/24 08:36:44;;;;;;;5.37;4.97;;;40.40;1.00;;;;;;5013297;28;20190;-70
2023/06/24 08:39:10;;;;;;;4.73;4.43;;;41.70;1.00;;;;;;5013517;28;20222;-70
2023/06/24 08:41:36;;;;;;;5.67;5.17;;;39.40;1.00;;;;;;5013086;28;20270;-70
2023/06/24 08:44:02;;;;;;;6.23;5.50;;;37.90;1.00;;;;;;5013438;28;20180;-70
2023/06/24 08:46:27;;;;;;;6.03;5.63;;;38.90;1.00;;;;;;5012997;28;20200;-70
2023/06/24 08:49:06;;;;;;;6.30;5.70;;;39.50;1.00;;;;;;5012786;28;20200;-70
2023/06/24 08:51:39;;;;;;;5.97;5.47;;;37.50;1.00;;;;;;4997424;28;20188;-70
2023/06/24 08:54:06;;;;;;;5.67;5.27;;;36.10;1.00;;;;;;5003340;28;20509;-70
2023/06/24 08:56:33;;;;;;;5.73;5.40;;;37.30;1.00;;;;;;5012695;28;20422;-70
2023/06/24 08:58:58;;;;;;;6.13;5.73;;;39.30;1.00;;;;;;5013094;28;20423;-70
2023/06/24 09:01:27;;;;;;;5.50;5.13;;;40.30;1.00;;;;;;5013047;28;20426;-70
2023/06/24 09:03:52;;;;;;;5.30;4.80;;;38.20;1.00;;;;;;5013140;28;20180;-70
2023/06/24 09:06:18;;;;;;;4.83;4.53;;;39.80;1.00;;;;;;5012950;28;20461;-70
2023/06/24 09:08:55;;;;;;;6.37;5.97;;;41.00;1.00;;;;;;5013000;28;20204;-71
2023/06/24 09:11:27;;;;;;;5.43;5.00;;;40.50;1.00;;;;;;5013076;28;20176;-70
2023/06/24 09:14:00;;;;;;;5.63;5.23;;;41.20;1.00;;;;;;5012866;28;20484;-70
2023/06/24 09:16:26;;;;;;;5.70;5.30;;;41.10;1.00;;;;;;5012793;28;20946;-70
2023/06/24 09:18:53;;;;;;;6.20;5.70;;;39.50;1.00;;;;;;5012681;28;20532;-70
2023/06/24 09:21:22;;;;;;;9.60;6.10;;;36.00;1.00;;;;;;5012796;28;20494;-70
2023/06/24 09:23:54;;;;;;;5.80;5.40;;;33.40;1.00;;;;;;5012732;28;20410;-70
2023/06/24 09:26:20;;;;;;;5.77;5.27;;;31.80;1.00;;;;;;5012704;28;20451;-70
2023/06/24 09:28:49;;;;;;;6.23;5.80;;;30.30;1.00;;;;;;5012741;28;20831;-70
2023/06/24 09:31:14;;;;;;;6.10;5.60;;;29.50;1.00;;;;;;5012686;28;20438;-70
2023/06/24 09:33:40;;;;;;;6.23;5.67;;;28.70;1.00;;;;;;5012280;28;20411;-70
2023/06/24 09:36:06;;;;;;;5.70;5.20;;;27.90;1.00;;;;;;5012642;28;20172;-71
2023/06/24 09:38:36;;;;;;;9.93;5.40;;;27.40;1.00;;;;;;5012802;28;20199;-71
2023/06/24 09:41:06;;;;;;;5.37;4.97;;;27.30;1.00;;;;;;5012715;28;20183;-71
2023/06/24 09:43:39;;;;;;;5.63;5.13;;;27.20;1.00;;;;;;5012942;28;20415;-71
2023/06/24 09:46:06;;;;;;;4.97;4.63;;;26.90;1.00;;;;;;5012526;28;20458;-70
2023/06/24 09:48:35;;;;;;;5.23;4.80;;;26.80;1.00;;;;;;5012466;28;20435;-70
2023/06/24 09:51:03;;;;;;;5.40;5.10;;;26.80;1.00;;;;;;5012876;28;20430;-71
2023/06/24 09:53:34;;;;;;;5.93;5.40;;;26.80;1.00;;;;;;5012213;28;20430;-71
2023/06/24 09:56:01;;;;;;;5.23;4.93;;;26.90;1.00;;;;;;5012408;28;20414;-71
2023/06/24 09:58:31;;;;;;;4.80;4.50;;;26.50;1.00;;;;;;5012221;28;20554;-71
2023/06/24 10:00:58;;;;;;;5.43;5.03;;;26.40;1.00;;;;;;5012357;28;20419;-71
2023/06/24 10:03:24;;;;;;;5.77;5.27;;;26.60;1.00;;;;;;5010590;28;20431;-69
2023/06/24 10:05:50;;;;;;;5.03;4.63;;;26.80;1.00;;;;;;5012371;28;20454;-71
2023/06/24 10:08:16;;;;;;;5.20;4.80;;;26.80;1.00;;;;;;5012258;28;20283;-71
2023/06/24 10:10:41;;;;;;;4.93;4.53;;;26.80;1.00;;;;;;5012138;28;20497;-69
2023/06/24 10:13:07;;;;;;;5.20;4.80;;;26.70;1.00;;;;;;5009841;28;20180;-69
2023/06/24 10:15:34;;;;;;;7.60;5.20;;;26.90;1.00;;;;;;4992636;28;20211;-70
2023/06/24 10:18:03;;;;;;;4.90;4.60;;;27.10;1.00;;;;;;4992051;28;20912;-69
2023/06/24 10:20:29;;;;;;;5.57;5.17;;;27.20;1.00;;;;;;4992308;28;20420;-71
2023/06/24 10:22:55;;;;;;;6.50;4.90;;;27.00;1.00;;;;;;4994764;28;20431;-73
2023/06/24 10:25:21;;;;;;;5.70;5.20;;;26.90;1.00;;;;;;4991429;28;20204;-73
2023/06/24 10:27:53;;;;;;;5.50;5.10;;;27.00;1.00;;;;;;4997629;28;20196;-75
2023/06/24 10:30:20;;;;;;;6.37;5.67;;;26.70;1.00;;;;;;5000666;28;20420;-74
2023/06/24 10:32:53;;;;;;;6.27;5.70;;;26.50;1.00;;;;;;4991224;28;20420;-73
2023/06/24 10:35:24;;;;;;;5.83;5.43;;;26.40;1.00;;;;;;5007469;28;20432;-73
2023/06/24 10:38:00;;;;;;;4.93;4.60;;;26.10;1.00;;;;;;4992429;28;20436;-73
2023/06/24 10:40:43;;;;;;;4.43;4.13;;;26.10;1.00;;;;;;4990878;28;20419;-73
2023/06/24 10:43:23;;;;;;;4.93;4.63;;;26.20;1.00;;;;;;4991976;28;20416;-72
2023/06/24 10:45:50;;;;;;;5.83;5.33;;;26.20;1.00;;;;;;4993757;28;20865;-73
2023/06/24 10:48:19;;;;;;;5.60;5.20;;;26.30;1.00;;;;;;4996266;28;20454;-73
2023/06/24 10:50:45;;;;;;;5.30;4.90;;;26.40;1.00;;;;;;4996483;28;20917;-72
2023/06/24 10:53:12;;;;;;;5.50;5.00;;;26.70;1.00;;;;;;4995783;28;20426;-73
2023/06/24 10:55:37;;;;;;;5.30;4.80;;;26.80;1.00;;;;;;4994602;28;20181;-70
2023/06/24 10:58:11;;;;;;;5.10;4.80;;;26.80;1.00;;;;;;4995740;28;20509;-73
2023/06/24 11:00:37;;;;;;;5.13;4.80;;;27.00;1.00;;;;;;4995878;28;20182;-73
2023/06/24 11:03:13;;;;;;;5.20;4.80;;;27.00;1.00;;;;;;4995763;28;20415;-74
2023/06/24 11:05:42;;;;;;;5.10;4.70;;;27.20;1.00;;;;;;4996443;28;20598;-74
2023/06/24 11:08:09;;;;;;;6.27;5.60;;;27.40;1.00;;;;;;4996641;28;20925;-74
2023/06/24 11:10:45;;;;;;;5.30;4.80;;;27.80;1.00;;;;;;4994408;28;20416;-74
2023/06/24 11:13:11;;;;;;;5.20;4.60;;;27.50;1.00;;;;;;4995388;28;20630;-73
2023/06/24 11:15:38;;;;;;;5.07;4.57;;;27.40;1.00;;;;;;4995650;28;20529;-73
2023/06/24 11:18:04;;;;;;;5.07;4.67;;;27.50;1.00;;;;;;4995631;28;20331;-73
2023/06/24 11:20:30;;;;;;;4.93;4.63;;;27.70;1.00;;;;;;4995466;28;20412;-73
2023/06/24 11:22:55;;;;;;;6.23;5.73;;;27.50;1.00;;;;;;4994800;28;20183;-73
2023/06/24 11:25:22;;;;;;;5.47;5.07;;;27.50;1.00;;;;;;4995336;28;20439;-73
2023/06/24 11:27:50;;;;;;;5.27;4.87;;;27.50;1.00;;;;;;4995271;28;20708;-73
2023/06/24 11:30:16;;;;;;;5.00;4.50;;;27.50;1.00;;;;;;4995426;28;20518;-73
2023/06/24 11:32:43;;;;;;;6.20;5.70;;;27.70;1.00;;;;;;4994026;28;20474;-71
2023/06/24 11:35:11;;;;;;;5.70;5.30;;;27.80;1.00;;;;;;4999957;28;20494;-72
2023/06/24 11:37:36;;;;;;;5.03;4.70;;;28.00;1.00;;;;;;4995131;28;20936;-69
2023/06/24 11:40:09;;;;;;;5.07;4.73;;;28.00;1.00;;;;;;4995110;28;20466;-72
2023/06/24 11:42:44;;;;;;;5.27;4.77;;;28.00;1.00;;;;;;4995052;28;20538;-71
2023/06/24 11:45:11;;;;;;;5.67;5.27;;;27.80;1.00;;;;;;4995454;28;20893;-71
2023/06/24 11:47:38;;;;;;;6.57;6.07;;;27.70;1.00;;;;;;4996121;28;20440;-71
2023/06/24 11:50:06;;;;;;;5.30;4.80;;;27.80;1.00;;;;;;4996102;28;20415;-73
2023/06/24 11:52:33;;;;;;;5.40;5.00;;;27.80;1.00;;;;;;4995717;28;20416;-73
2023/06/24 11:54:59;;;;;;;4.73;4.33;;;27.60;1.00;;;;;;4995351;28;20848;-73
2023/06/24 11:57:54;;;;;;;5.17;4.77;;;27.30;1.00;;;;;;4993539;28;20455;-73
2023/06/24 12:00:31;;;;;;;5.37;4.97;;;27.10;1.00;;;;;;4995102;28;20172;-70
2023/06/24 12:02:59;;;;;;;5.77;5.37;;;27.00;1.00;;;;;;4995079;28;20424;-70
2023/06/24 12:05:28;;;;;;;4.77;4.40;;;27.30;1.00;;;;;;4994807;28;20451;-71
2023/06/24 12:07:58;;;;;;;5.70;5.20;;;27.30;1.00;;;;;;4994689;28;20436;-72
2023/06/24 12:10:24;;;;;;;6.53;5.93;;;27.00;1.00;;;;;;4994711;28;20916;-72
2023/06/24 12:12:50;;;;;;;4.83;4.43;;;27.00;1.00;;;;;;4993339;28;20465;-72
2023/06/24 12:15:15;;;;;;;4.83;4.43;;;27.20;1.00;;;;;;4994687;28;20208;-72
2023/06/24 12:17:41;;;;;;;5.07;4.67;;;27.20;1.00;;;;;;4993226;28;20463;-72
2023/06/24 12:20:07;;;;;;;4.80;4.50;;;27.20;1.00;;;;;;4993344;28;20648;-72
2023/06/24 12:22:33;;;;;;;5.70;5.20;;;27.30;1.00;;;;;;5012746;28;20226;-71
2023/06/24 12:24:58;;;;;;;5.93;5.33;;;27.30;1.00;;;;;;5014026;28;20462;-72
2023/06/24 12:27:24;;;;;;;5.53;5.10;;;27.30;1.00;;;;;;5013891;28;20192;-72
2023/06/24 12:29:49;;;;;;;5.03;4.63;;;27.20;1.00;;;;;;5014034;28;20471;-72
2023/06/24 12:32:15;;;;;;;5.70;5.10;;;27.40;1.00;;;;;;5013658;28;20234;-72
2023/06/24 12:34:40;;;;;;;5.70;5.30;;;27.80;1.00;;;;;;5012371;28;20176;-72
2023/06/24 12:37:06;;;;;;;5.30;4.90;;;27.80;1.00;;;;;;5012164;28;20566;-72
2023/06/24 12:39:31;;;;;;;17.97;16.43;;;27.70;1.00;;;;;;5012281;28;20270;-72
2023/06/24 12:41:57;;;;;;;8.07;7.10;;;27.80;1.00;;;;;;5013311;28;20194;-72
2023/06/24 12:44:22;;;;;;;39.17;34.73;;;27.50;1.00;;;;;;5012135;28;20176;-71
2023/06/24 12:46:48;;;;;;;24.03;20.00;;;27.30;1.00;;;;;;5011997;28;20200;-71
2023/06/24 12:49:14;;;;;;;8.30;5.30;;;26.90;1.00;;;;;;5012251;28;20179;-69
2023/06/24 12:51:39;;;;;;;6.43;5.83;;;26.70;1.00;;;;;;5012956;28;20251;-71
2023/06/24 12:54:05;;;;;;;11.27;10.37;;;26.80;1.00;;;;;;5013115;28;20184;-71